createdAt,value
2022-10-09T00:01:22.675Z,13.31
2022-10-09T00:03:51.022Z,13.11
2022-10-09T00:06:21.283Z,13.32
2022-10-09T00:08:48.724Z,13.16
2022-10-09T00:11:19.183Z,13.16
2022-10-09T00:13:46.419Z,13.16
2022-10-09T00:16:14.674Z,13.12
2022-10-09T00:18:42.642Z,13.13
2022-10-09T00:21:31.151Z,13.23
2022-10-09T00:24:00.499Z,13.13
2022-10-09T00:26:27.690Z,13.14
2022-10-09T00:28:55.738Z,13.11
2022-10-09T00:31:22.856Z,13.09
2022-10-09T00:33:49.661Z,13.12
2022-10-09T00:36:19.934Z,13.03
2022-10-09T00:38:46.660Z,13.02
2022-10-09T00:41:20.415Z,12.87
2022-10-09T00:43:57.065Z,12.72
2022-10-09T00:46:28.461Z,12.80
2022-10-09T00:49:17.688Z,12.84
2022-10-09T00:51:48.060Z,12.88
2022-10-09T00:54:18.225Z,12.81
2022-10-09T00:56:44.915Z,12.79
2022-10-09T00:59:12.105Z,12.75
2022-10-09T01:01:41.246Z,12.66
2022-10-09T01:04:08.208Z,12.65
2022-10-09T01:06:49.450Z,12.70
2022-10-09T01:09:22.378Z,12.71
2022-10-09T01:11:54.584Z,12.81
2022-10-09T01:14:30.482Z,12.70
2022-10-09T01:17:14.132Z,12.63
2022-10-09T01:20:06.741Z,12.60
2022-10-09T01:23:01.383Z,12.65
2022-10-09T01:25:43.963Z,12.67
2022-10-09T01:28:11.480Z,12.88
2022-10-09T01:30:38.492Z,12.71
2022-10-09T01:33:06.099Z,12.74
2022-10-09T01:35:32.701Z,12.59
2022-10-09T01:38:01.245Z,12.51
2022-10-09T01:40:29.014Z,12.53
2022-10-09T01:42:56.586Z,12.52
2022-10-09T01:45:23.120Z,12.53
2022-10-09T01:47:49.940Z,12.59
2022-10-09T01:50:29.278Z,12.71
2022-10-09T01:52:59.269Z,12.53
2022-10-09T01:55:44.085Z,12.55
2022-10-09T01:58:19.687Z,12.61
2022-10-09T02:01:08.007Z,12.83
2022-10-09T02:03:36.509Z,12.57
2022-10-09T02:06:07.718Z,12.55
2022-10-09T02:08:36.744Z,12.67
2022-10-09T02:11:03.952Z,12.62
2022-10-09T02:13:32.288Z,12.41
2022-10-09T02:16:05.287Z,12.43
2022-10-09T02:18:45.503Z,12.49
2022-10-09T02:21:25.861Z,12.47
2022-10-09T02:23:55.299Z,12.34
2022-10-09T02:26:21.930Z,12.34
2022-10-09T02:28:48.598Z,12.24
2022-10-09T02:31:29.892Z,12.40
2022-10-09T02:34:01.713Z,12.44
2022-10-09T02:36:29.298Z,12.44
2022-10-09T02:38:56.768Z,12.11
2022-10-09T02:41:24.168Z,12.06
2022-10-09T02:43:51.596Z,12.03
2022-10-09T02:46:21.741Z,12.17
2022-10-09T02:48:48.472Z,12.16
2022-10-09T02:51:15.621Z,12.10
2022-10-09T02:53:42.817Z,12.29
2022-10-09T02:56:09.564Z,12.27
2022-10-09T02:58:36.601Z,12.09
2022-10-09T03:01:04.874Z,12.10
2022-10-09T03:03:31.986Z,12.20
2022-10-09T03:06:11.052Z,12.21
2022-10-09T03:08:39.654Z,12.18
2022-10-09T03:11:06.677Z,11.93
2022-10-09T03:13:34.092Z,11.88
2022-10-09T03:16:18.969Z,11.83
2022-10-09T03:18:46.762Z,11.95
2022-10-09T03:21:16.283Z,11.94
2022-10-09T03:23:50.315Z,11.84
2022-10-09T03:26:20.082Z,11.91
2022-10-09T03:28:48.549Z,11.80
2022-10-09T03:31:39.300Z,11.97
2022-10-09T03:34:03.381Z,11.81
2022-10-09T03:36:30.003Z,11.67
2022-10-09T03:38:56.508Z,11.63
2022-10-09T03:41:23.456Z,11.57
2022-10-09T03:43:50.130Z,11.53
2022-10-09T03:46:16.645Z,11.61
2022-10-09T03:48:43.254Z,11.53
2022-10-09T03:51:09.868Z,11.62
2022-10-09T03:53:36.410Z,11.76
2022-10-09T03:56:03.191Z,11.78
2022-10-09T03:58:30.442Z,11.87
2022-10-09T04:00:57.018Z,11.91
2022-10-09T04:03:23.788Z,11.81
2022-10-09T04:05:50.557Z,11.90
2022-10-09T04:08:17.293Z,11.56
2022-10-09T04:10:45.130Z,11.48
2022-10-09T04:13:11.883Z,11.43
2022-10-09T04:15:38.664Z,11.43
2022-10-09T04:18:05.340Z,11.47
2022-10-09T04:20:32.352Z,11.62
2022-10-09T04:22:58.947Z,11.72
2022-10-09T04:25:25.498Z,11.71
2022-10-09T04:27:52.044Z,11.74
2022-10-09T04:30:18.962Z,11.80
2022-10-09T04:32:48.235Z,11.91
2022-10-09T04:35:15.627Z,11.62
2022-10-09T04:37:42.368Z,11.25
2022-10-09T04:40:09.158Z,11.57
2022-10-09T04:42:35.798Z,11.11
2022-10-09T04:45:02.293Z,11.03
2022-10-09T04:47:28.850Z,10.99
2022-10-09T04:49:55.408Z,10.85
2022-10-09T04:52:21.943Z,10.79
2022-10-09T04:54:48.653Z,10.85
2022-10-09T04:57:15.330Z,10.86
2022-10-09T04:59:42.249Z,10.72
2022-10-09T05:02:08.922Z,11.04
2022-10-09T05:04:35.782Z,11.05
2022-10-09T05:07:02.358Z,11.31
2022-10-09T05:09:29.029Z,11.20
2022-10-09T05:11:55.602Z,11.41
2022-10-09T05:14:22.169Z,11.39
2022-10-09T05:17:12.429Z,11.10
2022-10-09T05:19:39.423Z,10.94
2022-10-09T05:22:06.044Z,11.04
2022-10-09T05:24:32.742Z,11.10
2022-10-09T05:26:59.303Z,11.04
2022-10-09T05:29:26.155Z,10.98
2022-10-09T05:31:52.904Z,11.06
2022-10-09T05:34:19.704Z,11.16
2022-10-09T05:36:46.420Z,11.12
2022-10-09T05:39:13.182Z,11.03
2022-10-09T05:41:42.882Z,11.04
2022-10-09T05:44:11.265Z,11.16
2022-10-09T05:46:37.835Z,11.12
2022-10-09T05:49:05.778Z,11.07
2022-10-09T05:51:34.695Z,10.84
2022-10-09T05:54:04.399Z,10.59
2022-10-09T05:56:33.480Z,10.76
2022-10-09T05:59:02.771Z,10.66
2022-10-09T06:01:32.578Z,10.51
2022-10-09T06:04:00.937Z,10.21
2022-10-09T06:06:29.670Z,10.13
2022-10-09T06:08:57.156Z,10.19
2022-10-09T06:11:32.522Z,10.20
2022-10-09T06:14:00.944Z,10.24
2022-10-09T06:16:30.275Z,10.40
2022-10-09T06:18:58.028Z,10.59
2022-10-09T06:21:25.381Z,10.42
2022-10-09T06:23:53.706Z,10.37
2022-10-09T06:26:21.540Z,10.86
2022-10-09T06:28:48.706Z,10.62
2022-10-09T06:31:18.695Z,10.80
2022-10-09T06:33:47.415Z,10.99
2022-10-09T06:36:19.746Z,11.12
2022-10-09T06:38:47.041Z,11.21
2022-10-09T06:41:15.951Z,11.38
2022-10-09T06:43:43.412Z,11.41
2022-10-09T06:46:12.086Z,11.25
2022-10-09T06:48:40.550Z,11.08
2022-10-09T06:51:09.943Z,11.10
2022-10-09T06:53:38.217Z,11.40
2022-10-09T06:56:05.927Z,11.58
2022-10-09T06:58:32.591Z,11.40
2022-10-09T07:01:20.699Z,11.72
2022-10-09T07:03:52.676Z,11.91
2022-10-09T07:06:21.600Z,11.77
2022-10-09T07:08:50.670Z,11.84
2022-10-09T07:11:22.634Z,11.54
2022-10-09T07:13:51.667Z,11.63
2022-10-09T07:16:32.343Z,11.92
2022-10-09T07:19:01.263Z,11.52
2022-10-09T07:21:27.809Z,11.55
2022-10-09T07:23:54.510Z,11.58
2022-10-09T07:26:27.014Z,11.86
2022-10-09T07:28:53.841Z,12.00
2022-10-09T07:31:20.911Z,12.03
2022-10-09T07:33:48.753Z,12.21
2022-10-09T07:36:15.612Z,12.32
2022-10-09T07:38:42.552Z,12.52
2022-10-09T07:41:12.269Z,12.73
2022-10-09T07:43:42.719Z,12.96
2022-10-09T07:46:14.960Z,12.83
2022-10-09T07:48:41.648Z,12.70
2022-10-09T07:51:19.071Z,12.51
2022-10-09T07:53:46.047Z,14.72
2022-10-09T07:56:21.328Z,13.18
2022-10-09T07:58:53.714Z,13.14
2022-10-09T08:01:21.218Z,13.01
2022-10-09T08:03:48.966Z,13.02
2022-10-09T08:06:15.909Z,12.93
2022-10-09T08:08:42.654Z,12.67
2022-10-09T08:11:16.576Z,13.01
2022-10-09T08:13:44.238Z,12.74
2022-10-09T08:16:11.594Z,12.87
2022-10-09T08:18:38.538Z,13.23
2022-10-09T08:21:11.639Z,13.01
2022-10-09T08:23:38.424Z,13.34
2022-10-09T08:26:11.812Z,12.90
2022-10-09T08:28:38.329Z,13.00
2022-10-09T08:31:14.808Z,13.11
2022-10-09T08:33:41.407Z,13.57
2022-10-09T08:36:09.815Z,13.20
2022-10-09T08:38:47.309Z,13.34
2022-10-09T08:41:32.606Z,13.41
2022-10-09T08:44:09.900Z,13.58
2022-10-09T08:47:03.381Z,13.48
2022-10-09T08:49:37.478Z,13.26
2022-10-09T08:52:24.213Z,13.13
2022-10-09T08:54:53.011Z,13.28
2022-10-09T08:57:21.165Z,13.67
2022-10-09T08:59:47.689Z,13.87
2022-10-09T09:02:33.495Z,14.07
2022-10-09T09:05:27.867Z,14.27
2022-10-09T09:08:36.478Z,14.24
2022-10-09T09:11:27.001Z,14.12
2022-10-09T09:14:18.190Z,13.74
2022-10-09T09:16:54.821Z,13.91
2022-10-09T09:19:39.938Z,13.96
2022-10-09T09:22:12.028Z,14.23
2022-10-09T09:24:44.161Z,14.08
2022-10-09T09:27:13.689Z,14.13
2022-10-09T09:29:46.551Z,14.39
2022-10-09T09:32:33.771Z,14.12
2022-10-09T09:35:18.081Z,13.97
2022-10-09T09:37:44.576Z,14.47
2022-10-09T09:40:36.570Z,14.23
2022-10-09T09:43:05.709Z,14.27
2022-10-09T09:45:32.310Z,14.42
2022-10-09T09:48:11.200Z,14.64
2022-10-09T09:50:56.374Z,14.67
2022-10-09T09:53:37.701Z,14.63
2022-10-09T09:56:04.670Z,14.81
2022-10-09T09:58:44.448Z,14.88
2022-10-09T10:01:21.216Z,14.98
2022-10-09T10:03:50.532Z,14.84
2022-10-09T10:06:24.898Z,15.07
2022-10-09T10:09:02.123Z,15.13
2022-10-09T10:11:30.134Z,15.15
2022-10-09T10:13:57.494Z,15.06
2022-10-09T10:16:27.101Z,15.17
2022-10-09T10:18:56.176Z,14.88
2022-10-09T10:21:23.165Z,15.25
2022-10-09T10:23:55.565Z,15.31
2022-10-09T10:26:40.840Z,15.43
2022-10-09T10:29:15.811Z,15.46
2022-10-09T10:32:02.348Z,15.58
2022-10-09T10:34:45.146Z,15.43
2022-10-09T10:37:14.777Z,15.59
2022-10-09T10:39:57.120Z,15.64
2022-10-09T10:42:34.719Z,15.61
2022-10-09T10:45:10.508Z,15.59
2022-10-09T10:47:42.963Z,15.35
2022-10-09T10:50:20.175Z,15.69
2022-10-09T10:53:10.952Z,15.75
2022-10-09T10:56:04.899Z,15.86
2022-10-09T10:58:52.864Z,15.67
2022-10-09T11:01:41.817Z,15.75
2022-10-09T11:04:23.547Z,15.96
2022-10-09T11:07:11.733Z,16.05
2022-10-09T11:09:57.168Z,16.16
2022-10-09T11:12:48.715Z,16.14
2022-10-09T11:15:37.485Z,16.22
2022-10-09T11:18:25.590Z,16.39
2022-10-09T11:21:14.805Z,16.34
2022-10-09T11:24:08.352Z,16.40
2022-10-09T11:26:37.782Z,16.43
2022-10-09T11:29:22.421Z,16.48
2022-10-09T11:31:54.201Z,16.58
2022-10-09T11:34:35.229Z,16.77
2022-10-09T11:37:06.993Z,16.83
2022-10-09T11:39:34.047Z,16.89
2022-10-09T11:42:00.779Z,16.90
2022-10-09T11:44:43.498Z,16.76
2022-10-09T11:47:18.722Z,16.81
2022-10-09T11:50:08.553Z,17.05
2022-10-09T11:52:46.431Z,17.12
2022-10-09T11:55:25.021Z,17.24
2022-10-09T11:57:51.874Z,16.98
2022-10-09T12:00:33.828Z,16.93
2022-10-09T12:03:04.763Z,17.09
2022-10-09T12:05:41.390Z,17.35
2022-10-09T12:08:25.653Z,17.32
2022-10-09T12:10:58.689Z,17.40
2022-10-09T12:13:48.753Z,17.36
2022-10-09T12:16:44.890Z,17.33
2022-10-09T12:19:36.641Z,17.33
2022-10-09T12:22:12.685Z,17.17
2022-10-09T12:24:45.333Z,17.38
2022-10-09T12:27:24.962Z,17.49
2022-10-09T12:30:14.821Z,17.61
2022-10-09T12:32:54.255Z,17.61
2022-10-09T12:35:34.383Z,17.58
2022-10-09T12:38:00.986Z,17.63
2022-10-09T12:40:30.990Z,17.57
2022-10-09T12:42:58.728Z,17.55
2022-10-09T12:45:27.794Z,17.47
2022-10-09T12:47:54.671Z,17.46
2022-10-09T12:50:24.510Z,17.50
2022-10-09T12:52:58.035Z,17.56
2022-10-09T12:55:28.941Z,17.65
2022-10-09T12:57:59.498Z,17.49
2022-10-09T13:00:26.013Z,17.74
2022-10-09T13:02:53.036Z,17.75
2022-10-09T13:05:20.025Z,17.75
2022-10-09T13:07:52.566Z,17.62
2022-10-09T13:10:22.405Z,17.74
2022-10-09T13:12:54.439Z,17.61
2022-10-09T13:15:39.136Z,17.68
2022-10-09T13:18:21.899Z,17.68
2022-10-09T13:21:17.532Z,17.98
2022-10-09T13:23:44.014Z,18.03
2022-10-09T13:26:16.097Z,18.07
2022-10-09T13:28:42.804Z,18.23
2022-10-09T13:31:09.417Z,18.27
2022-10-09T13:33:36.066Z,18.24
2022-10-09T13:36:02.738Z,18.19
2022-10-09T13:38:32.647Z,18.16
2022-10-09T13:41:01.367Z,18.16
2022-10-09T13:43:28.964Z,18.06
2022-10-09T13:45:55.770Z,18.11
2022-10-09T13:48:22.612Z,17.98
2022-10-09T13:50:49.619Z,18.20
2022-10-09T13:53:16.117Z,18.27
2022-10-09T13:55:42.692Z,18.44
2022-10-09T13:58:09.697Z,18.33
2022-10-09T14:00:37.305Z,18.39
2022-10-09T14:03:04.727Z,18.51
2022-10-09T14:05:31.434Z,18.47
2022-10-09T14:07:58.012Z,18.36
2022-10-09T14:10:26.858Z,18.34
2022-10-09T14:12:53.460Z,18.51
2022-10-09T14:15:20.105Z,18.57
2022-10-09T14:17:47.080Z,18.55
2022-10-09T14:20:13.860Z,18.68
2022-10-09T14:22:40.376Z,18.68
2022-10-09T14:25:07.461Z,18.57
2022-10-09T14:30:01.666Z,18.80
2022-10-09T14:32:28.357Z,18.88
2022-10-09T14:34:54.956Z,18.81
2022-10-09T14:37:39.823Z,18.79
2022-10-09T14:40:08.541Z,18.89
2022-10-09T14:42:36.917Z,18.95
2022-10-09T14:45:04.065Z,19.12
2022-10-09T14:47:30.656Z,19.03
2022-10-09T14:49:57.234Z,18.93
2022-10-09T14:52:23.737Z,19.01
2022-10-09T14:54:50.647Z,19.08
2022-10-09T14:57:17.117Z,19.00
2022-10-09T14:59:43.596Z,18.88
2022-10-09T15:02:14.518Z,18.88
2022-10-09T15:04:41.114Z,18.92
2022-10-09T15:07:07.772Z,18.87
2022-10-09T15:09:34.339Z,18.82
2022-10-09T15:12:00.846Z,19.01
2022-10-09T15:14:27.313Z,19.03
2022-10-09T15:16:53.949Z,19.19
2022-10-09T15:19:20.564Z,19.06
2022-10-09T15:21:47.087Z,18.98
2022-10-09T15:24:13.782Z,19.09
2022-10-09T15:26:42.013Z,19.10
2022-10-09T15:29:08.799Z,19.13
2022-10-09T15:31:38.223Z,19.25
2022-10-09T15:34:05.915Z,19.41
2022-10-09T15:36:36.491Z,19.42
2022-10-09T15:39:07.456Z,19.32
2022-10-09T15:41:37.459Z,19.36
2022-10-09T15:44:07.444Z,19.26
2022-10-09T15:46:34.605Z,19.10
2022-10-09T15:49:01.131Z,19.06
2022-10-09T15:51:29.329Z,19.24
2022-10-09T15:53:56.326Z,19.31
2022-10-09T15:56:24.670Z,19.42
2022-10-09T15:58:52.465Z,19.21
2022-10-09T16:01:20.338Z,19.34
2022-10-09T16:03:47.631Z,19.14
2022-10-09T16:06:20.833Z,19.26
2022-10-09T16:08:47.935Z,19.45
2022-10-09T16:11:18.960Z,19.39
2022-10-09T16:13:48.758Z,19.14
2022-10-09T16:16:20.541Z,19.52
2022-10-09T16:18:47.435Z,19.35
2022-10-09T16:21:26.137Z,19.53
2022-10-09T16:23:58.178Z,19.58
2022-10-09T16:26:27.008Z,19.29
2022-10-09T16:28:54.036Z,19.11
2022-10-09T16:31:38.524Z,19.15
2022-10-09T16:34:06.205Z,19.08
2022-10-09T16:36:33.252Z,19.05
2022-10-09T16:39:00.077Z,19.00
2022-10-09T16:41:26.881Z,19.00
2022-10-09T16:43:55.940Z,19.18
2022-10-09T16:49:05.836Z,18.90
2022-10-09T16:51:35.739Z,18.81
2022-10-09T16:54:04.844Z,18.83
2022-10-09T16:56:35.280Z,18.67
2022-10-09T16:59:05.389Z,18.65
2022-10-09T17:01:32.795Z,18.58
2022-10-09T17:04:00.132Z,18.53
2022-10-09T17:06:27.794Z,18.53
2022-10-09T17:08:56.271Z,18.35
2022-10-09T17:11:24.277Z,18.37
2022-10-09T17:13:52.242Z,18.36
2022-10-09T17:16:21.601Z,18.25
2022-10-09T17:18:49.125Z,18.29
2022-10-09T17:21:17.545Z,18.24
2022-10-09T17:23:45.343Z,18.17
2022-10-09T17:26:14.716Z,18.10
2022-10-09T17:28:42.556Z,18.03
2022-10-09T17:31:14.248Z,18.03
2022-10-09T17:33:43.056Z,18.05
2022-10-09T17:36:10.325Z,17.99
2022-10-09T17:38:37.295Z,17.85
2022-10-09T17:41:07.983Z,17.81
2022-10-09T17:43:34.487Z,17.82
2022-10-09T17:46:01.062Z,17.79
2022-10-09T17:48:29.114Z,17.81
2022-10-09T17:50:57.705Z,17.73
2022-10-09T17:53:24.917Z,17.67
2022-10-09T17:55:53.707Z,17.78
2022-10-09T17:58:23.954Z,17.58
2022-10-09T18:00:51.219Z,17.56
2022-10-09T18:03:18.502Z,17.50
2022-10-09T18:05:50.299Z,17.46
2022-10-09T18:08:18.792Z,17.48
2022-10-09T18:10:46.565Z,17.43
2022-10-09T18:13:14.358Z,17.40
2022-10-09T18:15:42.705Z,17.34
2022-10-09T18:18:09.998Z,17.37
2022-10-09T18:20:38.347Z,17.49
2022-10-09T18:23:05.110Z,17.37
2022-10-09T18:25:32.040Z,17.32
2022-10-09T18:27:59.787Z,17.36
2022-10-09T18:30:27.660Z,17.30
2022-10-09T18:32:54.280Z,17.24
2022-10-09T18:35:21.036Z,17.19
2022-10-09T18:37:47.564Z,17.00
2022-10-09T18:40:14.371Z,17.05
2022-10-09T18:42:40.999Z,17.07
2022-10-09T18:45:10.012Z,17.26
2022-10-09T18:47:36.636Z,17.28
2022-10-09T18:50:09.271Z,17.24
2022-10-09T18:52:37.363Z,17.32
2022-10-09T18:55:06.213Z,17.20
2022-10-09T18:57:34.299Z,17.11
2022-10-09T19:00:01.901Z,17.23
2022-10-09T19:02:28.746Z,17.17
2022-10-09T19:04:55.429Z,17.10
2022-10-09T19:20:38.957Z,16.80
2022-10-09T19:23:05.459Z,16.76
2022-10-09T19:25:31.970Z,16.75
2022-10-09T19:27:58.598Z,16.75
2022-10-09T19:30:25.084Z,16.92
2022-10-09T19:32:52.652Z,16.97
2022-10-09T19:35:19.805Z,16.87
2022-10-09T19:37:46.365Z,16.87
2022-10-09T19:40:12.913Z,16.58
2022-10-09T19:42:39.682Z,16.47
2022-10-09T19:45:06.674Z,16.51
2022-10-09T19:47:33.175Z,16.49
2022-10-09T19:49:59.827Z,16.63
2022-10-09T19:52:26.330Z,16.39
2022-10-09T19:54:52.822Z,16.32
2022-10-09T19:57:19.485Z,16.34
2022-10-09T19:59:47.896Z,16.24
2022-10-09T20:02:14.420Z,16.43
2022-10-09T20:04:41.156Z,16.49
2022-10-09T20:07:12.556Z,16.58
2022-10-09T20:09:39.420Z,16.49
2022-10-09T20:12:08.091Z,16.42
2022-10-09T20:14:34.636Z,16.48
2022-10-09T20:17:01.199Z,16.49
2022-10-09T20:19:30.912Z,16.58
2022-10-09T20:21:58.189Z,16.45
2022-10-09T20:24:24.697Z,16.52
2022-10-09T20:26:51.351Z,16.54
2022-10-09T20:29:17.919Z,16.49
2022-10-09T20:31:44.686Z,16.54
2022-10-09T20:34:11.272Z,16.47
2022-10-09T20:36:39.149Z,16.30
2022-10-09T20:39:12.408Z,16.26
2022-10-09T20:41:39.898Z,16.24
2022-10-09T20:44:06.726Z,16.25
2022-10-09T20:46:35.798Z,16.26
2022-10-09T20:49:05.175Z,16.23
2022-10-09T20:51:31.728Z,16.02
2022-10-09T20:53:59.632Z,16.07
2022-10-09T20:56:28.776Z,16.01
2022-10-09T20:58:56.208Z,16.14
2022-10-09T21:01:23.756Z,16.17
2022-10-09T21:03:51.202Z,15.97
2022-10-09T21:06:23.750Z,15.79
2022-10-09T21:08:50.825Z,15.72
2022-10-09T21:11:18.552Z,15.67
2022-10-09T21:13:45.842Z,15.65
2022-10-09T21:16:15.395Z,15.72
2022-10-09T21:18:41.884Z,15.55
2022-10-09T21:21:14.796Z,15.50
2022-10-09T21:23:42.417Z,15.38
2022-10-09T21:26:17.184Z,15.30
2022-10-09T21:28:44.277Z,15.38
2022-10-09T21:31:14.727Z,15.34
2022-10-09T21:33:41.480Z,15.38
2022-10-09T21:36:17.470Z,15.24
2022-10-09T21:38:43.939Z,15.26
2022-10-09T21:41:10.471Z,15.15
2022-10-09T21:43:37.074Z,15.25
2022-10-09T21:46:03.571Z,15.12
2022-10-09T21:48:30.129Z,15.04
2022-10-09T21:50:57.066Z,14.99
2022-10-09T21:53:23.611Z,14.95
2022-10-09T21:55:50.184Z,15.07
2022-10-09T21:58:16.763Z,15.02
2022-10-09T22:00:43.312Z,14.98
2022-10-09T22:03:09.886Z,15.02
2022-10-09T22:05:39.814Z,15.10
2022-10-09T22:08:06.349Z,15.01
2022-10-09T22:10:32.824Z,14.99
2022-10-09T22:12:59.776Z,15.07
2022-10-09T22:15:26.283Z,14.82
2022-10-09T22:17:52.806Z,14.93
2022-10-09T22:20:19.409Z,15.05
2022-10-09T22:22:45.935Z,14.72
2022-10-09T22:25:12.437Z,14.47
2022-10-09T22:27:39.061Z,14.47
2022-10-09T22:30:06.117Z,14.50
2022-10-09T22:32:32.590Z,14.78
2022-10-09T22:34:59.352Z,14.82
2022-10-09T22:37:26.109Z,14.66
2022-10-09T22:39:52.583Z,14.66
2022-10-09T22:42:19.265Z,14.60
2022-10-09T22:44:45.797Z,14.54
2022-10-09T22:47:12.274Z,14.64
2022-10-09T22:49:38.902Z,14.61
2022-10-09T22:52:05.387Z,14.60
2022-10-09T22:54:31.911Z,14.42
2022-10-09T22:56:58.510Z,14.58
2022-10-09T22:59:25.069Z,14.36
2022-10-09T23:01:55.133Z,14.40
2022-10-09T23:04:23.209Z,14.36
2022-10-09T23:06:54.702Z,14.50
2022-10-09T23:09:23.263Z,14.72
2022-10-09T23:11:50.074Z,14.72
2022-10-09T23:14:17.350Z,14.56
2022-10-09T23:16:44.005Z,14.55
2022-10-09T23:19:10.984Z,14.67
2022-10-09T23:21:40.057Z,14.38
2022-10-09T23:24:07.985Z,14.07
2022-10-09T23:26:35.799Z,13.96
2022-10-09T23:29:08.174Z,13.83
2022-10-09T23:31:35.558Z,14.12
2022-10-09T23:34:03.633Z,14.23
2022-10-09T23:36:30.562Z,14.23
2022-10-09T23:38:57.934Z,14.31
2022-10-09T23:41:27.326Z,14.04
2022-10-09T23:43:54.481Z,14.03
2022-10-09T23:46:24.032Z,13.96
2022-10-09T23:48:51.764Z,14.29
2022-10-09T23:51:20.351Z,14.33
2022-10-09T23:53:47.291Z,14.52
2022-10-09T23:56:23.429Z,14.53
2022-10-09T23:58:50.566Z,14.31
